sensor_id;sensor_type;location;lat;lon;timestamp;temperature;humidity
25302;DHT22;13243;50.888;4.724;2023-05-15T00:00:01;12.90;99.90
25302;DHT22;13243;50.888;4.724;2023-05-15T00:05:08;12.80;99.90
25302;DHT22;13243;50.888;4.724;2023-05-15T00:10:11;12.70;99.90
25302;DHT22;13243;50.888;4.724;2023-05-15T00:15:12;12.60;99.90
25302;DHT22;13243;50.888;4.724;2023-05-15T00:20:14;12.70;99.90
25302;DHT22;13243;50.888;4.724;2023-05-15T00:25:16;12.60;99.90
25302;DHT22;13243;50.888;4.724;2023-05-15T00:30:20;12.50;99.90
25302;DHT22;13243;50.888;4.724;2023-05-15T00:35:21;12.50;99.90
25302;DHT22;13243;50.888;4.724;2023-05-15T00:40:24;12.40;99.90
25302;DHT22;13243;50.888;4.724;2023-05-15T00:45:28;12.40;99.90
25302;DHT22;13243;50.888;4.724;2023-05-15T00:50:31;12.40;99.90
25302;DHT22;13243;50.888;4.724;2023-05-15T00:55:34;12.50;99.90
25302;DHT22;13243;50.888;4.724;2023-05-15T01:00:37;12.40;99.90
25302;DHT22;13243;50.888;4.724;2023-05-15T01:05:39;12.30;99.90
25302;DHT22;13243;50.888;4.724;2023-05-15T01:10:42;12.30;99.90
25302;DHT22;13243;50.888;4.724;2023-05-15T01:15:44;12.40;99.90
25302;DHT22;13243;50.888;4.724;2023-05-15T01:20:49;12.20;99.90
25302;DHT22;13243;50.888;4.724;2023-05-15T01:31:32;12.20;99.90
25302;DHT22;13243;50.888;4.724;2023-05-15T01:36:40;12.10;99.90
25302;DHT22;13243;50.888;4.724;2023-05-15T01:41:50;12.10;99.90
25302;DHT22;13243;50.888;4.724;2023-05-15T01:46:55;12.10;99.90
25302;DHT22;13243;50.888;4.724;2023-05-15T01:52:12;12.10;99.90
25302;DHT22;13243;50.888;4.724;2023-05-15T01:57:14;12.10;99.90
25302;DHT22;13243;50.888;4.724;2023-05-15T02:02:17;12.00;99.90
25302;DHT22;13243;50.888;4.724;2023-05-15T02:07:20;12.10;99.90
25302;DHT22;13243;50.888;4.724;2023-05-15T02:12:23;12.00;99.90
25302;DHT22;13243;50.888;4.724;2023-05-15T02:17:25;12.10;99.90
25302;DHT22;13243;50.888;4.724;2023-05-15T02:22:28;12.10;99.90
25302;DHT22;13243;50.888;4.724;2023-05-15T02:27:37;12.20;99.90
25302;DHT22;13243;50.888;4.724;2023-05-15T02:37:55;12.10;99.90
25302;DHT22;13243;50.888;4.724;2023-05-15T02:43:01;12.20;99.90
25302;DHT22;13243;50.888;4.724;2023-05-15T02:48:04;12.00;99.90
25302;DHT22;13243;50.888;4.724;2023-05-15T02:53:06;11.90;99.90
25302;DHT22;13243;50.888;4.724;2023-05-15T02:58:10;11.90;99.90
25302;DHT22;13243;50.888;4.724;2023-05-15T03:03:12;12.00;99.90
25302;DHT22;13243;50.888;4.724;2023-05-15T03:08:14;11.80;99.90
25302;DHT22;13243;50.888;4.724;2023-05-15T03:13:15;11.80;99.90
25302;DHT22;13243;50.888;4.724;2023-05-15T03:18:17;11.90;99.90
25302;DHT22;13243;50.888;4.724;2023-05-15T03:23:20;11.80;99.90
25302;DHT22;13243;50.888;4.724;2023-05-15T03:28:22;11.70;99.90
25302;DHT22;13243;50.888;4.724;2023-05-15T03:33:24;11.60;99.90
25302;DHT22;13243;50.888;4.724;2023-05-15T03:38:26;11.50;99.90
25302;DHT22;13243;50.888;4.724;2023-05-15T03:43:28;11.60;99.90
25302;DHT22;13243;50.888;4.724;2023-05-15T03:48:29;11.60;99.90
25302;DHT22;13243;50.888;4.724;2023-05-15T03:53:31;11.60;99.90
25302;DHT22;13243;50.888;4.724;2023-05-15T03:58:33;11.70;99.90
25302;DHT22;13243;50.888;4.724;2023-05-15T04:03:35;11.70;99.90
25302;DHT22;13243;50.888;4.724;2023-05-15T04:08:37;11.60;99.90
25302;DHT22;13243;50.888;4.724;2023-05-15T04:13:40;11.50;99.90
25302;DHT22;13243;50.888;4.724;2023-05-15T04:18:42;11.40;99.90
25302;DHT22;13243;50.888;4.724;2023-05-15T04:23:44;11.60;99.90
25302;DHT22;13243;50.888;4.724;2023-05-15T04:28:46;11.50;99.90
25302;DHT22;13243;50.888;4.724;2023-05-15T04:34:04;11.50;99.90
25302;DHT22;13243;50.888;4.724;2023-05-15T04:39:06;11.10;99.90
25302;DHT22;13243;50.888;4.724;2023-05-15T04:44:08;10.80;99.90
25302;DHT22;13243;50.888;4.724;2023-05-15T04:49:11;11.00;99.90
25302;DHT22;13243;50.888;4.724;2023-05-15T04:54:12;11.30;99.90
25302;DHT22;13243;50.888;4.724;2023-05-15T04:59:14;11.40;99.90
25302;DHT22;13243;50.888;4.724;2023-05-15T05:04:17;11.20;99.90
25302;DHT22;13243;50.888;4.724;2023-05-15T05:09:21;11.20;99.90
25302;DHT22;13243;50.888;4.724;2023-05-15T05:14:23;11.40;99.90
25302;DHT22;13243;50.888;4.724;2023-05-15T05:19:25;11.50;99.90
25302;DHT22;13243;50.888;4.724;2023-05-15T05:24:28;11.70;99.90
25302;DHT22;13243;50.888;4.724;2023-05-15T05:29:31;11.80;99.90
25302;DHT22;13243;50.888;4.724;2023-05-15T05:34:33;11.50;99.90
25302;DHT22;13243;50.888;4.724;2023-05-15T05:39:34;11.30;99.90
25302;DHT22;13243;50.888;4.724;2023-05-15T05:44:36;11.30;99.90
25302;DHT22;13243;50.888;4.724;2023-05-15T05:49:38;11.60;99.90
25302;DHT22;13243;50.888;4.724;2023-05-15T05:54:41;11.70;99.90
25302;DHT22;13243;50.888;4.724;2023-05-15T05:59:43;11.60;99.90
25302;DHT22;13243;50.888;4.724;2023-05-15T06:04:46;11.80;99.90
25302;DHT22;13243;50.888;4.724;2023-05-15T06:09:48;11.80;99.90
25302;DHT22;13243;50.888;4.724;2023-05-15T06:14:50;11.80;99.90
25302;DHT22;13243;50.888;4.724;2023-05-15T06:19:53;11.80;99.90
25302;DHT22;13243;50.888;4.724;2023-05-15T06:24:55;11.80;99.90
25302;DHT22;13243;50.888;4.724;2023-05-15T06:29:56;11.80;99.90
25302;DHT22;13243;50.888;4.724;2023-05-15T06:34:59;11.80;99.90
25302;DHT22;13243;50.888;4.724;2023-05-15T06:40:00;11.80;99.90
25302;DHT22;13243;50.888;4.724;2023-05-15T06:45:02;11.90;99.90
25302;DHT22;13243;50.888;4.724;2023-05-15T06:50:05;12.00;99.90
25302;DHT22;13243;50.888;4.724;2023-05-15T06:55:07;12.00;99.90
25302;DHT22;13243;50.888;4.724;2023-05-15T07:00:10;11.90;99.90
25302;DHT22;13243;50.888;4.724;2023-05-15T07:05:13;12.10;99.90
25302;DHT22;13243;50.888;4.724;2023-05-15T07:10:15;12.20;99.90
25302;DHT22;13243;50.888;4.724;2023-05-15T07:15:17;12.60;99.90
25302;DHT22;13243;50.888;4.724;2023-05-15T07:20:19;12.70;99.90
25302;DHT22;13243;50.888;4.724;2023-05-15T07:25:21;12.90;99.90
25302;DHT22;13243;50.888;4.724;2023-05-15T07:30:24;13.10;99.90
25302;DHT22;13243;50.888;4.724;2023-05-15T07:35:26;12.80;99.90
25302;DHT22;13243;50.888;4.724;2023-05-15T07:40:28;12.60;99.90
25302;DHT22;13243;50.888;4.724;2023-05-15T07:45:30;12.80;99.90
25302;DHT22;13243;50.888;4.724;2023-05-15T07:50:33;12.80;99.90
25302;DHT22;13243;50.888;4.724;2023-05-15T07:55:35;12.60;99.90
25302;DHT22;13243;50.888;4.724;2023-05-15T08:00:37;12.80;99.90
25302;DHT22;13243;50.888;4.724;2023-05-15T08:05:39;12.50;99.90
25302;DHT22;13243;50.888;4.724;2023-05-15T08:10:41;13.20;99.90
25302;DHT22;13243;50.888;4.724;2023-05-15T08:15:42;13.70;99.90
25302;DHT22;13243;50.888;4.724;2023-05-15T08:20:44;14.00;99.90
25302;DHT22;13243;50.888;4.724;2023-05-15T08:25:47;13.80;99.90
25302;DHT22;13243;50.888;4.724;2023-05-15T08:30:48;13.70;99.90
25302;DHT22;13243;50.888;4.724;2023-05-15T08:35:50;13.60;99.90
25302;DHT22;13243;50.888;4.724;2023-05-15T08:40:53;14.40;99.90
25302;DHT22;13243;50.888;4.724;2023-05-15T08:45:58;14.70;99.90
25302;DHT22;13243;50.888;4.724;2023-05-15T08:51:01;14.40;99.90
25302;DHT22;13243;50.888;4.724;2023-05-15T08:56:04;14.80;99.90
25302;DHT22;13243;50.888;4.724;2023-05-15T09:01:06;15.40;99.90
25302;DHT22;13243;50.888;4.724;2023-05-15T09:06:09;14.60;99.90
25302;DHT22;13243;50.888;4.724;2023-05-15T09:11:11;15.50;99.90
25302;DHT22;13243;50.888;4.724;2023-05-15T09:16:14;16.10;99.90
25302;DHT22;13243;50.888;4.724;2023-05-15T09:21:27;15.70;99.90
25302;DHT22;13243;50.888;4.724;2023-05-15T09:26:29;16.00;99.90
25302;DHT22;13243;50.888;4.724;2023-05-15T09:31:31;16.40;99.90
25302;DHT22;13243;50.888;4.724;2023-05-15T09:36:41;16.10;99.90
25302;DHT22;13243;50.888;4.724;2023-05-15T09:41:44;16.40;99.90
25302;DHT22;13243;50.888;4.724;2023-05-15T09:46:46;15.60;99.90
25302;DHT22;13243;50.888;4.724;2023-05-15T09:51:49;15.40;99.90
25302;DHT22;13243;50.888;4.724;2023-05-15T09:56:52;16.10;99.90
25302;DHT22;13243;50.888;4.724;2023-05-15T10:01:54;16.30;99.90
25302;DHT22;13243;50.888;4.724;2023-05-15T10:06:56;16.10;99.90
25302;DHT22;13243;50.888;4.724;2023-05-15T10:11:58;16.70;99.90
25302;DHT22;13243;50.888;4.724;2023-05-15T10:17:00;16.70;99.90
25302;DHT22;13243;50.888;4.724;2023-05-15T10:22:02;16.40;99.90
25302;DHT22;13243;50.888;4.724;2023-05-15T10:27:05;17.10;99.90
25302;DHT22;13243;50.888;4.724;2023-05-15T10:32:09;17.20;99.90
25302;DHT22;13243;50.888;4.724;2023-05-15T10:37:13;17.30;99.90
25302;DHT22;13243;50.888;4.724;2023-05-15T10:42:16;17.60;99.90
25302;DHT22;13243;50.888;4.724;2023-05-15T10:47:18;17.50;99.90
25302;DHT22;13243;50.888;4.724;2023-05-15T10:52:21;17.70;99.90
25302;DHT22;13243;50.888;4.724;2023-05-15T10:57:23;17.70;99.90
25302;DHT22;13243;50.888;4.724;2023-05-15T11:02:26;18.50;99.90
25302;DHT22;13243;50.888;4.724;2023-05-15T11:07:30;18.30;99.90
25302;DHT22;13243;50.888;4.724;2023-05-15T11:13:07;17.80;99.90
25302;DHT22;13243;50.888;4.724;2023-05-15T11:18:09;17.80;99.90
25302;DHT22;13243;50.888;4.724;2023-05-15T11:23:11;17.50;99.90
25302;DHT22;13243;50.888;4.724;2023-05-15T11:28:20;17.00;99.90
25302;DHT22;13243;50.888;4.724;2023-05-15T11:33:23;16.70;99.90
25302;DHT22;13243;50.888;4.724;2023-05-15T11:38:25;16.80;99.90
25302;DHT22;13243;50.888;4.724;2023-05-15T11:43:29;16.70;99.90
25302;DHT22;13243;50.888;4.724;2023-05-15T11:48:33;16.70;99.90
25302;DHT22;13243;50.888;4.724;2023-05-15T11:53:37;16.80;99.90
25302;DHT22;13243;50.888;4.724;2023-05-15T11:58:41;16.40;99.90
25302;DHT22;13243;50.888;4.724;2023-05-15T12:03:46;16.50;99.90
25302;DHT22;13243;50.888;4.724;2023-05-15T12:08:51;16.40;99.90
25302;DHT22;13243;50.888;4.724;2023-05-15T12:13:53;16.40;99.90
25302;DHT22;13243;50.888;4.724;2023-05-15T12:18:56;16.10;99.90
25302;DHT22;13243;50.888;4.724;2023-05-15T12:23:58;16.10;99.90
25302;DHT22;13243;50.888;4.724;2023-05-15T12:29:09;16.20;99.90
25302;DHT22;13243;50.888;4.724;2023-05-15T12:34:11;16.00;99.90
25302;DHT22;13243;50.888;4.724;2023-05-15T12:39:12;15.90;99.90
25302;DHT22;13243;50.888;4.724;2023-05-15T12:44:18;16.00;99.90
25302;DHT22;13243;50.888;4.724;2023-05-15T12:49:21;16.10;99.90
25302;DHT22;13243;50.888;4.724;2023-05-15T12:54:23;15.90;99.90
25302;DHT22;13243;50.888;4.724;2023-05-15T12:59:25;15.80;99.90
25302;DHT22;13243;50.888;4.724;2023-05-15T13:04:27;15.70;99.90
25302;DHT22;13243;50.888;4.724;2023-05-15T13:09:29;15.70;99.90
25302;DHT22;13243;50.888;4.724;2023-05-15T13:14:32;15.70;99.90
25302;DHT22;13243;50.888;4.724;2023-05-15T13:19:34;15.60;99.90
25302;DHT22;13243;50.888;4.724;2023-05-15T13:24:36;15.50;99.90
25302;DHT22;13243;50.888;4.724;2023-05-15T13:29:37;15.60;99.90
25302;DHT22;13243;50.888;4.724;2023-05-15T13:34:39;15.20;99.90
25302;DHT22;13243;50.888;4.724;2023-05-15T13:39:41;15.50;99.90
25302;DHT22;13243;50.888;4.724;2023-05-15T13:44:43;15.50;99.90
25302;DHT22;13243;50.888;4.724;2023-05-15T13:49:45;15.10;99.90
25302;DHT22;13243;50.888;4.724;2023-05-15T13:54:47;14.90;99.90
25302;DHT22;13243;50.888;4.724;2023-05-15T13:59:48;14.70;99.90
25302;DHT22;13243;50.888;4.724;2023-05-15T14:04:54;14.80;99.90
25302;DHT22;13243;50.888;4.724;2023-05-15T14:09:56;14.70;99.90
25302;DHT22;13243;50.888;4.724;2023-05-15T14:14:59;14.60;99.90
25302;DHT22;13243;50.888;4.724;2023-05-15T14:20:01;14.50;99.90
25302;DHT22;13243;50.888;4.724;2023-05-15T14:25:04;14.50;99.90
25302;DHT22;13243;50.888;4.724;2023-05-15T14:30:07;14.40;99.90
25302;DHT22;13243;50.888;4.724;2023-05-15T14:35:09;14.40;99.90
25302;DHT22;13243;50.888;4.724;2023-05-15T14:40:11;14.20;99.90
25302;DHT22;13243;50.888;4.724;2023-05-15T14:45:13;14.30;99.90
25302;DHT22;13243;50.888;4.724;2023-05-15T14:50:15;14.20;99.90
25302;DHT22;13243;50.888;4.724;2023-05-15T14:55:18;14.10;99.90
25302;DHT22;13243;50.888;4.724;2023-05-15T15:00:23;14.20;99.90
25302;DHT22;13243;50.888;4.724;2023-05-15T15:05:25;14.00;99.90
25302;DHT22;13243;50.888;4.724;2023-05-15T15:10:27;14.10;99.90
25302;DHT22;13243;50.888;4.724;2023-05-15T15:15:30;14.10;99.90
25302;DHT22;13243;50.888;4.724;2023-05-15T15:20:32;13.90;99.90
25302;DHT22;13243;50.888;4.724;2023-05-15T15:25:36;13.90;99.90
25302;DHT22;13243;50.888;4.724;2023-05-15T15:30:38;13.90;99.90
25302;DHT22;13243;50.888;4.724;2023-05-15T15:35:40;13.90;99.90
25302;DHT22;13243;50.888;4.724;2023-05-15T15:40:42;13.90;99.90
25302;DHT22;13243;50.888;4.724;2023-05-15T15:45:44;13.60;99.90
25302;DHT22;13243;50.888;4.724;2023-05-15T15:50:46;13.70;99.90
25302;DHT22;13243;50.888;4.724;2023-05-15T15:55:48;13.80;99.90
25302;DHT22;13243;50.888;4.724;2023-05-15T16:00:50;13.70;99.90
25302;DHT22;13243;50.888;4.724;2023-05-15T16:05:52;13.60;99.90
25302;DHT22;13243;50.888;4.724;2023-05-15T16:10:54;13.40;99.90
25302;DHT22;13243;50.888;4.724;2023-05-15T16:15:56;13.40;99.90
25302;DHT22;13243;50.888;4.724;2023-05-15T16:20:57;13.40;99.90
25302;DHT22;13243;50.888;4.724;2023-05-15T16:26:00;13.40;99.90
25302;DHT22;13243;50.888;4.724;2023-05-15T16:31:03;13.50;99.90
25302;DHT22;13243;50.888;4.724;2023-05-15T16:36:05;13.40;99.90
25302;DHT22;13243;50.888;4.724;2023-05-15T16:41:07;13.50;99.90
25302;DHT22;13243;50.888;4.724;2023-05-15T16:46:09;13.40;99.90
25302;DHT22;13243;50.888;4.724;2023-05-15T16:51:11;13.50;99.90
25302;DHT22;13243;50.888;4.724;2023-05-15T16:56:13;13.50;99.90
25302;DHT22;13243;50.888;4.724;2023-05-15T17:01:15;13.50;99.90
25302;DHT22;13243;50.888;4.724;2023-05-15T17:06:17;13.40;99.90
25302;DHT22;13243;50.888;4.724;2023-05-15T17:11:19;13.40;99.90
25302;DHT22;13243;50.888;4.724;2023-05-15T17:16:22;13.30;99.90
25302;DHT22;13243;50.888;4.724;2023-05-15T17:21:24;13.30;99.90
25302;DHT22;13243;50.888;4.724;2023-05-15T17:26:25;13.10;99.90
25302;DHT22;13243;50.888;4.724;2023-05-15T17:31:27;13.10;99.90
25302;DHT22;13243;50.888;4.724;2023-05-15T17:36:30;13.10;99.90
25302;DHT22;13243;50.888;4.724;2023-05-15T17:41:32;13.00;99.90
25302;DHT22;13243;50.888;4.724;2023-05-15T17:46:34;12.90;99.90
25302;DHT22;13243;50.888;4.724;2023-05-15T17:51:36;12.90;99.90
25302;DHT22;13243;50.888;4.724;2023-05-15T17:56:38;12.80;99.90
25302;DHT22;13243;50.888;4.724;2023-05-15T18:01:40;12.80;99.90
25302;DHT22;13243;50.888;4.724;2023-05-15T18:06:42;12.60;99.90
25302;DHT22;13243;50.888;4.724;2023-05-15T18:11:44;12.80;99.90
25302;DHT22;13243;50.888;4.724;2023-05-15T18:16:46;12.80;99.90
25302;DHT22;13243;50.888;4.724;2023-05-15T18:21:48;12.70;99.90
25302;DHT22;13243;50.888;4.724;2023-05-15T18:26:49;12.80;99.90
25302;DHT22;13243;50.888;4.724;2023-05-15T18:31:51;12.80;99.90
25302;DHT22;13243;50.888;4.724;2023-05-15T18:36:53;12.70;99.90
25302;DHT22;13243;50.888;4.724;2023-05-15T18:41:55;12.70;99.90
25302;DHT22;13243;50.888;4.724;2023-05-15T18:46:57;12.50;99.90
25302;DHT22;13243;50.888;4.724;2023-05-15T18:51:59;12.50;99.90
25302;DHT22;13243;50.888;4.724;2023-05-15T18:57:01;12.40;99.90
25302;DHT22;13243;50.888;4.724;2023-05-15T19:02:03;12.20;99.90
25302;DHT22;13243;50.888;4.724;2023-05-15T19:07:05;12.30;99.90
25302;DHT22;13243;50.888;4.724;2023-05-15T19:12:07;12.20;99.90
25302;DHT22;13243;50.888;4.724;2023-05-15T19:17:09;12.10;99.90
25302;DHT22;13243;50.888;4.724;2023-05-15T19:22:12;12.00;99.90
25302;DHT22;13243;50.888;4.724;2023-05-15T19:27:14;12.00;99.90
25302;DHT22;13243;50.888;4.724;2023-05-15T19:32:16;12.10;99.90
25302;DHT22;13243;50.888;4.724;2023-05-15T19:37:18;12.00;99.90
25302;DHT22;13243;50.888;4.724;2023-05-15T19:42:20;11.80;99.90
25302;DHT22;13243;50.888;4.724;2023-05-15T19:47:22;11.80;99.90
25302;DHT22;13243;50.888;4.724;2023-05-15T19:52:24;11.80;99.90
25302;DHT22;13243;50.888;4.724;2023-05-15T19:57:26;11.90;99.90
25302;DHT22;13243;50.888;4.724;2023-05-15T20:02:28;11.80;99.90
25302;DHT22;13243;50.888;4.724;2023-05-15T20:07:29;11.90;99.90
25302;DHT22;13243;50.888;4.724;2023-05-15T20:12:31;11.80;99.90
25302;DHT22;13243;50.888;4.724;2023-05-15T20:17:33;11.80;99.90
25302;DHT22;13243;50.888;4.724;2023-05-15T20:22:36;11.70;99.90
25302;DHT22;13243;50.888;4.724;2023-05-15T20:27:39;11.70;99.90
25302;DHT22;13243;50.888;4.724;2023-05-15T20:32:41;11.70;99.90
25302;DHT22;13243;50.888;4.724;2023-05-15T20:37:43;11.80;99.90
25302;DHT22;13243;50.888;4.724;2023-05-15T20:42:45;11.80;99.90
25302;DHT22;13243;50.888;4.724;2023-05-15T20:47:48;11.80;99.90
25302;DHT22;13243;50.888;4.724;2023-05-15T20:52:50;11.70;99.90
25302;DHT22;13243;50.888;4.724;2023-05-15T20:57:52;11.70;99.90
25302;DHT22;13243;50.888;4.724;2023-05-15T21:02:54;11.80;99.90
25302;DHT22;13243;50.888;4.724;2023-05-15T21:07:56;11.70;99.90
25302;DHT22;13243;50.888;4.724;2023-05-15T21:12:58;11.70;99.90
25302;DHT22;13243;50.888;4.724;2023-05-15T21:18:00;11.50;99.90
25302;DHT22;13243;50.888;4.724;2023-05-15T21:23:02;11.70;99.90
25302;DHT22;13243;50.888;4.724;2023-05-15T21:28:04;11.60;99.90
25302;DHT22;13243;50.888;4.724;2023-05-15T21:33:06;11.50;99.90
25302;DHT22;13243;50.888;4.724;2023-05-15T21:38:08;11.50;99.90
25302;DHT22;13243;50.888;4.724;2023-05-15T21:43:10;11.50;99.90
25302;DHT22;13243;50.888;4.724;2023-05-15T21:48:11;11.40;99.90
25302;DHT22;13243;50.888;4.724;2023-05-15T21:53:13;11.30;99.90
25302;DHT22;13243;50.888;4.724;2023-05-15T21:58:16;11.50;99.90
25302;DHT22;13243;50.888;4.724;2023-05-15T22:03:18;11.50;99.90
25302;DHT22;13243;50.888;4.724;2023-05-15T22:08:21;11.50;99.90
25302;DHT22;13243;50.888;4.724;2023-05-15T22:13:23;11.40;99.90
25302;DHT22;13243;50.888;4.724;2023-05-15T22:18:25;11.30;99.90
25302;DHT22;13243;50.888;4.724;2023-05-15T22:23:29;11.30;99.90
25302;DHT22;13243;50.888;4.724;2023-05-15T22:28:32;11.40;99.90
25302;DHT22;13243;50.888;4.724;2023-05-15T22:33:34;11.40;99.90
25302;DHT22;13243;50.888;4.724;2023-05-15T22:38:36;11.30;99.90
25302;DHT22;13243;50.888;4.724;2023-05-15T22:43:37;11.30;99.90
25302;DHT22;13243;50.888;4.724;2023-05-15T22:48:39;11.30;99.90
25302;DHT22;13243;50.888;4.724;2023-05-15T22:53:41;11.30;99.90
25302;DHT22;13243;50.888;4.724;2023-05-15T22:58:43;11.20;99.90
25302;DHT22;13243;50.888;4.724;2023-05-15T23:03:45;11.10;99.90
25302;DHT22;13243;50.888;4.724;2023-05-15T23:08:47;11.00;99.90
25302;DHT22;13243;50.888;4.724;2023-05-15T23:13:51;11.00;99.90
25302;DHT22;13243;50.888;4.724;2023-05-15T23:18:55;11.00;99.90
25302;DHT22;13243;50.888;4.724;2023-05-15T23:23:58;10.90;99.90
25302;DHT22;13243;50.888;4.724;2023-05-15T23:29:00;10.90;99.90
25302;DHT22;13243;50.888;4.724;2023-05-15T23:34:02;10.90;99.90
25302;DHT22;13243;50.888;4.724;2023-05-15T23:39:04;10.80;99.90
25302;DHT22;13243;50.888;4.724;2023-05-15T23:44:05;10.80;99.90
25302;DHT22;13243;50.888;4.724;2023-05-15T23:49:07;10.80;99.90
25302;DHT22;13243;50.888;4.724;2023-05-15T23:54:09;10.60;99.90
25302;DHT22;13243;50.888;4.724;2023-05-15T23:59:12;10.60;99.90
